Skip Navigation LinksHome page > Weather > Current weather Skip Navigation Links

Current Weather

Jakutsk, Russia

For information only: do not use for flight planning or navigation.
Latest weather
Observation time Sunday, October 23, 2016 4:00 PM JST
Local time Sunday, October 23, 2016 4:46 PM JST
Flight conditions Visual Meteorological Conditions
Wind direction South-Southwest (200°)
Wind speed 4 mph
Visibility 6.2 mi.
Sky condition
Ceiling unlimited
Cloud layer scattered clouds with cumulonimbus 2,000 ft.
Temperature 16°F
Dewpoint 10°F
Altimeter 29.62 in.Hg
QF 4:24 AM
Derived measurements
Relative humidity 79%
Wind chill 9°F
Density altitude -2260 ft.
No significant changes expected in the next two hours.
METAR UEEE 230700Z 20002MPS 9999 SCT020CB M09/M12 Q1003 R23L/45//50 NOSIG RMK QFE744


Location code

InnerDrive.Weather 4.0.5722.1 Release CLR 4.0.30319.34209
Copyright ©2015 Inner Drive Technology. All rights reserved. Portions Copyright ©1986-2015 David Braverman.

Find weather

Site navigation

Skip Navigation Links

Place info

Page info

PayPal - The safer, easier way to pay online!

Return home.

Copyright ©2016 Inner Drive Technology. Purveyors of fine, hand-crafted computer software. Page printed 2016-10-23T07:46:34 UTC.